createdAt,value
2017-09-06T00:00:11.112Z,0
2017-09-06T00:01:13.504Z,0
2017-09-06T00:02:16.247Z,0
2017-09-06T00:03:18.645Z,0
2017-09-06T00:04:21.040Z,0
2017-09-06T00:05:23.443Z,0
2017-09-06T00:06:25.830Z,0
2017-09-06T00:07:28.224Z,0
2017-09-06T00:08:30.630Z,0
2017-09-06T00:09:33.027Z,0
2017-09-06T00:10:35.425Z,0
2017-09-06T00:11:37.827Z,0
2017-09-06T00:12:40.219Z,0
2017-09-06T00:13:42.621Z,0
2017-09-06T00:14:45.028Z,0
2017-09-06T00:15:47.419Z,0
2017-09-06T00:16:50.153Z,0
2017-09-06T00:17:52.550Z,0
2017-09-06T00:18:54.947Z,0
2017-09-06T00:19:57.691Z,0
2017-09-06T00:21:00.091Z,0
2017-09-06T00:22:02.487Z,0
2017-09-06T00:23:04.876Z,0
2017-09-06T00:24:07.274Z,0
2017-09-06T00:25:09.681Z,0
2017-09-06T00:26:12.073Z,0
2017-09-06T00:27:14.810Z,0
2017-09-06T00:28:17.214Z,0
2017-09-06T00:29:19.623Z,0
2017-09-06T00:30:22.012Z,0
2017-09-06T00:31:24.412Z,0
2017-09-06T00:32:26.798Z,0
2017-09-06T00:33:29.207Z,0
2017-09-06T00:34:31.949Z,0
2017-09-06T00:35:34.345Z,0
2017-09-06T00:36:36.740Z,0
2017-09-06T00:37:39.134Z,0
2017-09-06T00:38:41.532Z,0
2017-09-06T00:39:43.941Z,0
2017-09-06T00:40:46.332Z,0
2017-09-06T00:41:48.727Z,0
2017-09-06T00:42:51.125Z,0
2017-09-06T00:43:53.520Z,0
2017-09-06T00:44:55.920Z,0
2017-09-06T00:45:58.316Z,0
2017-09-06T00:47:01.051Z,0
2017-09-06T00:48:03.460Z,0
2017-09-06T00:49:05.847Z,0
2017-09-06T00:50:08.250Z,0
2017-09-06T00:51:10.653Z,0
2017-09-06T00:52:13.046Z,0
2017-09-06T00:53:15.449Z,0
2017-09-06T00:54:17.847Z,0
2017-09-06T00:55:20.590Z,0
2017-09-06T00:56:22.995Z,0
2017-09-06T00:57:25.392Z,0
2017-09-06T00:58:27.783Z,0
2017-09-06T00:59:30.187Z,0
2017-09-06T01:00:32.591Z,0
2017-09-06T01:01:34.984Z,0
2017-09-06T01:02:37.382Z,0
2017-09-06T01:03:39.781Z,0
2017-09-06T01:04:42.174Z,0
2017-09-06T01:05:44.580Z,0
2017-09-06T01:06:46.975Z,0
2017-09-06T01:07:49.713Z,0
2017-09-06T01:08:52.114Z,0
2017-09-06T01:09:54.549Z,0
2017-09-06T01:10:56.922Z,0
2017-09-06T01:11:59.315Z,0
2017-09-06T01:13:01.702Z,0
2017-09-06T01:14:04.106Z,0
2017-09-06T01:15:06.502Z,0
2017-09-06T01:16:08.898Z,0
2017-09-06T01:17:11.297Z,0
2017-09-06T01:18:13.693Z,0
2017-09-06T01:19:16.461Z,0
2017-09-06T01:20:18.859Z,0
2017-09-06T01:21:21.258Z,0
2017-09-06T01:22:23.659Z,0
2017-09-06T01:23:26.062Z,0
2017-09-06T01:24:28.449Z,0
2017-09-06T01:25:30.851Z,0
2017-09-06T01:26:33.249Z,0
2017-09-06T01:27:35.646Z,0
2017-09-06T01:28:38.048Z,0
2017-09-06T01:29:40.439Z,0
2017-09-06T01:30:42.835Z,0
2017-09-06T01:31:45.238Z,0
2017-09-06T01:32:47.638Z,0
2017-09-06T01:33:50.040Z,0
2017-09-06T01:34:52.786Z,0
2017-09-06T01:35:55.527Z,0
2017-09-06T01:36:57.921Z,0
2017-09-06T01:38:00.325Z,0
2017-09-06T01:39:02.710Z,0
2017-09-06T01:40:05.466Z,0
2017-09-06T01:41:07.870Z,0
2017-09-06T01:42:10.267Z,0
2017-09-06T01:43:12.671Z,0
2017-09-06T01:44:15.407Z,0
2017-09-06T01:45:17.799Z,0
2017-09-06T01:46:20.211Z,0
2017-09-06T01:47:22.610Z,0
2017-09-06T01:48:25.004Z,0
2017-09-06T01:49:27.409Z,0
2017-09-06T01:50:29.805Z,0
2017-09-06T01:51:32.207Z,0
2017-09-06T01:52:34.601Z,0
2017-09-06T01:53:36.999Z,0
2017-09-06T01:54:39.392Z,0
2017-09-06T01:55:41.793Z,0
2017-09-06T01:56:44.189Z,0
2017-09-06T01:57:46.593Z,0
2017-09-06T01:58:48.987Z,0
2017-09-06T01:59:51.383Z,0
2017-09-06T02:00:53.781Z,0
2017-09-06T02:01:56.177Z,0
2017-09-06T02:02:58.579Z,0
2017-09-06T02:04:00.981Z,0
2017-09-06T02:05:03.379Z,0
2017-09-06T02:06:05.780Z,0
2017-09-06T02:07:08.174Z,0
2017-09-06T02:08:10.570Z,0
2017-09-06T02:09:12.960Z,0
2017-09-06T02:10:15.367Z,0
2017-09-06T02:11:17.754Z,0
2017-09-06T02:12:20.154Z,0
2017-09-06T02:13:22.555Z,0
2017-09-06T02:14:24.947Z,0
2017-09-06T02:15:27.689Z,0
2017-09-06T02:16:30.089Z,0
2017-09-06T02:17:32.491Z,0
2017-09-06T02:18:34.889Z,0
2017-09-06T02:19:37.625Z,0
2017-09-06T02:20:40.023Z,0
2017-09-06T02:21:42.435Z,0
2017-09-06T02:22:45.164Z,0
2017-09-06T02:23:47.562Z,0
2017-09-06T02:24:49.957Z,0
2017-09-06T02:25:52.356Z,0
2017-09-06T02:26:54.761Z,0
2017-09-06T02:27:57.168Z,0
2017-09-06T02:28:59.897Z,0
2017-09-06T02:30:02.298Z,0
2017-09-06T02:31:04.707Z,0
2017-09-06T02:32:07.106Z,0
2017-09-06T02:33:09.503Z,0
2017-09-06T02:34:11.895Z,0
2017-09-06T02:35:14.292Z,0
2017-09-06T02:36:16.696Z,0
2017-09-06T02:37:19.095Z,0
2017-09-06T02:38:21.492Z,0
2017-09-06T02:39:23.889Z,0
2017-09-06T02:40:26.288Z,0
2017-09-06T02:41:29.026Z,0
2017-09-06T02:42:31.431Z,0
2017-09-06T02:43:33.817Z,0
2017-09-06T02:44:36.225Z,0
2017-09-06T02:45:38.969Z,0
2017-09-06T02:46:41.374Z,0
2017-09-06T02:47:44.118Z,0
2017-09-06T02:48:46.516Z,0
2017-09-06T02:49:48.912Z,0
2017-09-06T02:50:51.316Z,0
2017-09-06T02:51:53.708Z,0
2017-09-06T02:52:56.109Z,0
2017-09-06T02:53:58.514Z,0
2017-09-06T02:55:00.913Z,0
2017-09-06T02:56:03.648Z,0
2017-09-06T02:57:06.046Z,0
2017-09-06T02:58:08.449Z,0
2017-09-06T02:59:10.854Z,0
2017-09-06T03:00:13.252Z,0
2017-09-06T03:01:15.979Z,0
2017-09-06T03:02:18.391Z,0
2017-09-06T03:03:20.788Z,0
2017-09-06T03:04:23.177Z,0
2017-09-06T03:05:25.915Z,0
2017-09-06T03:06:28.312Z,0
2017-09-06T03:07:30.710Z,0
2017-09-06T03:08:33.110Z,0
2017-09-06T03:09:35.500Z,0
2017-09-06T03:10:37.901Z,0
2017-09-06T03:11:40.309Z,0
2017-09-06T03:12:42.705Z,0
2017-09-06T03:13:45.103Z,0
2017-09-06T03:14:47.509Z,0
2017-09-06T03:15:49.912Z,0
2017-09-06T03:16:52.308Z,0
2017-09-06T03:17:55.042Z,0
2017-09-06T03:18:57.448Z,0
2017-09-06T03:19:59.850Z,0
2017-09-06T03:21:02.244Z,0
2017-09-06T03:22:04.650Z,0
2017-09-06T03:23:07.053Z,0
2017-09-06T03:24:09.456Z,0
2017-09-06T03:25:11.856Z,0
2017-09-06T03:26:14.582Z,0
2017-09-06T03:27:16.988Z,0
2017-09-06T03:28:19.724Z,0
2017-09-06T03:29:22.121Z,0
2017-09-06T03:30:24.905Z,0
2017-09-06T03:31:27.308Z,0
2017-09-06T03:32:29.703Z,0
2017-09-06T03:33:32.102Z,0
2017-09-06T03:34:34.502Z,0
2017-09-06T03:35:36.896Z,0
2017-09-06T03:36:39.291Z,0
2017-09-06T03:37:41.699Z,0
2017-09-06T03:38:44.091Z,0
2017-09-06T03:39:46.487Z,0
2017-09-06T03:40:49.223Z,0
2017-09-06T03:41:51.620Z,0
2017-09-06T03:42:54.022Z,0
2017-09-06T03:43:56.422Z,0
2017-09-06T03:44:58.812Z,0
2017-09-06T03:46:01.212Z,0
2017-09-06T03:47:03.618Z,0
2017-09-06T03:48:06.020Z,0
2017-09-06T03:49:08.411Z,0
2017-09-06T03:50:10.813Z,0
2017-09-06T03:51:13.217Z,0
2017-09-06T03:52:15.945Z,0
2017-09-06T03:53:18.343Z,0
2017-09-06T03:54:21.088Z,0
2017-09-06T03:55:23.485Z,0
2017-09-06T03:56:25.889Z,0
2017-09-06T03:57:28.282Z,0
2017-09-06T03:58:30.681Z,0
2017-09-06T03:59:33.090Z,0
2017-09-06T04:00:35.476Z,0
2017-09-06T04:01:37.884Z,0
2017-09-06T04:02:40.279Z,0
2017-09-06T04:03:43.014Z,0
2017-09-06T04:04:45.409Z,0
2017-09-06T04:05:47.816Z,0
2017-09-06T04:06:50.215Z,0
2017-09-06T04:07:52.617Z,0
2017-09-06T04:08:55.013Z,0
2017-09-06T04:09:57.415Z,0
2017-09-06T04:10:59.810Z,0
2017-09-06T04:12:02.213Z,0
2017-09-06T04:13:04.608Z,0
2017-09-06T04:14:07.006Z,0
2017-09-06T04:15:09.404Z,0
2017-09-06T04:16:11.806Z,0
2017-09-06T04:17:14.202Z,0
2017-09-06T04:18:16.605Z,0
2017-09-06T04:19:19.340Z,0
2017-09-06T04:20:21.732Z,0
2017-09-06T04:21:24.131Z,0
2017-09-06T04:22:26.524Z,0
2017-09-06T04:23:28.928Z,0
2017-09-06T04:24:31.326Z,0
2017-09-06T04:25:33.715Z,0
2017-09-06T04:26:36.114Z,0
2017-09-06T04:27:38.511Z,0
2017-09-06T04:28:40.910Z,0
2017-09-06T04:29:43.304Z,0
2017-09-06T04:30:45.702Z,0
2017-09-06T04:31:48.096Z,0
2017-09-06T04:32:50.499Z,0
2017-09-06T04:33:52.897Z,0
2017-09-06T04:34:55.281Z,0
2017-09-06T04:35:57.678Z,0
2017-09-06T04:37:00.073Z,0
2017-09-06T04:38:02.472Z,0
2017-09-06T04:39:04.870Z,0
2017-09-06T04:40:07.941Z,0
2017-09-06T04:41:10.336Z,0
2017-09-06T04:42:12.739Z,0
2017-09-06T04:43:15.133Z,0
2017-09-06T04:44:17.523Z,0
2017-09-06T04:45:19.926Z,0
2017-09-06T04:46:22.657Z,0
2017-09-06T04:47:25.399Z,0
2017-09-06T04:48:27.791Z,0
2017-09-06T04:49:30.186Z,0
2017-09-06T04:50:32.579Z,0
2017-09-06T04:51:34.984Z,0
2017-09-06T04:52:37.379Z,0
2017-09-06T04:53:39.782Z,1
2017-09-06T04:54:42.180Z,1
2017-09-06T04:55:44.583Z,1
2017-09-06T04:56:46.974Z,1
2017-09-06T04:57:49.379Z,1
2017-09-06T04:58:51.767Z,1
2017-09-06T04:59:54.169Z,2
2017-09-06T05:00:56.559Z,2
2017-09-06T05:01:58.961Z,2
2017-09-06T05:03:01.354Z,2
2017-09-06T05:04:03.752Z,2
2017-09-06T05:05:06.152Z,2
2017-09-06T05:06:08.556Z,2
2017-09-06T05:07:10.950Z,2
2017-09-06T05:08:13.361Z,2
2017-09-06T05:09:15.755Z,2
2017-09-06T05:10:18.155Z,2
2017-09-06T05:11:20.546Z,2
2017-09-06T05:12:22.944Z,2
2017-09-06T05:13:25.339Z,2
2017-09-06T05:14:27.728Z,2
2017-09-06T05:15:30.138Z,3
2017-09-06T05:16:32.528Z,3
2017-09-06T05:17:35.268Z,3
2017-09-06T05:18:38.002Z,3
2017-09-06T05:19:40.740Z,3
2017-09-06T05:20:43.136Z,4
2017-09-06T05:21:45.536Z,4
2017-09-06T05:22:47.923Z,5
2017-09-06T05:23:50.323Z,6
2017-09-06T05:24:52.721Z,6
2017-09-06T05:25:55.454Z,7
2017-09-06T05:26:57.856Z,7
2017-09-06T05:28:00.586Z,6
2017-09-06T05:29:02.988Z,6
2017-09-06T05:30:05.387Z,5
2017-09-06T05:31:07.785Z,5
2017-09-06T05:32:10.179Z,5
2017-09-06T05:33:12.569Z,6
2017-09-06T05:34:14.974Z,7
2017-09-06T05:35:17.373Z,8
2017-09-06T05:36:19.773Z,9
2017-09-06T05:37:22.178Z,11
2017-09-06T05:38:24.571Z,12
2017-09-06T05:39:26.973Z,11
2017-09-06T05:40:29.372Z,10
2017-09-06T05:41:31.759Z,9
2017-09-06T05:42:34.161Z,7
2017-09-06T05:43:36.559Z,6
2017-09-06T05:44:38.950Z,6
2017-09-06T05:45:41.343Z,6
2017-09-06T05:46:44.089Z,6
2017-09-06T05:47:46.489Z,5
2017-09-06T05:48:49.210Z,4
2017-09-06T05:49:51.613Z,4
2017-09-06T05:50:54.007Z,3
2017-09-06T05:51:56.411Z,3
2017-09-06T05:52:58.806Z,4
2017-09-06T05:54:01.194Z,4
2017-09-06T05:55:03.593Z,4
2017-09-06T05:56:05.996Z,4
2017-09-06T05:57:08.389Z,4
2017-09-06T05:58:10.787Z,3
2017-09-06T05:59:13.185Z,3
2017-09-06T06:00:16.029Z,3
2017-09-06T06:01:18.444Z,3
2017-09-06T06:02:20.843Z,3
2017-09-06T06:03:23.239Z,4
2017-09-06T06:04:25.634Z,4
2017-09-06T06:05:28.045Z,4
2017-09-06T06:06:30.442Z,4
2017-09-06T06:07:32.847Z,4
2017-09-06T06:08:35.236Z,4
2017-09-06T06:09:37.633Z,4
2017-09-06T06:10:40.040Z,5
2017-09-06T06:11:42.447Z,6
2017-09-06T06:12:44.843Z,7
2017-09-06T06:13:47.242Z,8
2017-09-06T06:14:49.641Z,9
2017-09-06T06:15:52.045Z,10
2017-09-06T06:16:54.442Z,11
2017-09-06T06:17:56.842Z,12
2017-09-06T06:18:59.247Z,13
2017-09-06T06:20:01.632Z,14
2017-09-06T06:21:04.042Z,14
2017-09-06T06:22:06.439Z,14
2017-09-06T06:23:09.189Z,14
2017-09-06T06:24:11.934Z,14
2017-09-06T06:25:14.331Z,14
2017-09-06T06:26:16.724Z,14
2017-09-06T06:27:19.128Z,14
2017-09-06T06:28:21.523Z,13
2017-09-06T06:29:23.932Z,12
2017-09-06T06:30:26.322Z,11
2017-09-06T06:31:28.722Z,11
2017-09-06T06:32:31.117Z,10
2017-09-06T06:33:33.514Z,9
2017-09-06T06:34:35.904Z,8
2017-09-06T06:35:38.301Z,8
2017-09-06T06:36:40.699Z,8
2017-09-06T06:37:43.097Z,8
2017-09-06T06:38:45.497Z,9
2017-09-06T06:39:48.244Z,10
2017-09-06T06:40:50.634Z,10
2017-09-06T06:41:53.032Z,11
2017-09-06T06:42:55.791Z,12
2017-09-06T06:43:58.185Z,13
2017-09-06T06:45:00.581Z,14
2017-09-06T06:46:02.989Z,14
2017-09-06T06:47:05.384Z,13
2017-09-06T06:48:07.769Z,12
2017-09-06T06:49:10.169Z,10
2017-09-06T06:50:12.566Z,11
2017-09-06T06:51:15.303Z,11
2017-09-06T06:52:17.697Z,9
2017-09-06T06:53:20.099Z,9
2017-09-06T06:54:22.831Z,10
2017-09-06T06:55:25.230Z,12
2017-09-06T06:56:27.632Z,15
2017-09-06T06:57:30.012Z,18
2017-09-06T06:58:32.410Z,22
2017-09-06T06:59:34.802Z,24
2017-09-06T07:00:37.203Z,28
2017-09-06T07:01:39.597Z,28
2017-09-06T07:02:41.986Z,25
2017-09-06T07:03:44.389Z,21
2017-09-06T07:04:46.784Z,16
2017-09-06T07:05:49.180Z,14
2017-09-06T07:06:51.576Z,14
2017-09-06T07:07:53.975Z,14
2017-09-06T07:08:56.712Z,10
2017-09-06T07:09:59.121Z,15
2017-09-06T07:11:01.513Z,20
2017-09-06T07:12:03.901Z,20
2017-09-06T07:13:06.300Z,17
2017-09-06T07:14:08.706Z,16
2017-09-06T07:15:11.453Z,16
2017-09-06T07:16:13.867Z,13
2017-09-06T07:17:16.292Z,15
2017-09-06T07:18:18.714Z,15
2017-09-06T07:19:21.128Z,14
2017-09-06T07:20:23.558Z,13
2017-09-06T07:21:25.968Z,14
2017-09-06T07:22:28.391Z,17
2017-09-06T07:23:30.806Z,18
2017-09-06T07:24:33.201Z,18
2017-09-06T07:25:35.623Z,18
2017-09-06T07:26:38.031Z,20
2017-09-06T07:27:40.439Z,18
2017-09-06T07:28:42.863Z,17
2017-09-06T07:29:45.987Z,18
2017-09-06T07:30:48.393Z,23
2017-09-06T07:31:50.811Z,24
2017-09-06T07:32:53.225Z,24
2017-09-06T07:33:55.637Z,24
2017-09-06T07:34:58.049Z,25
2017-09-06T07:36:00.447Z,24
2017-09-06T07:37:02.871Z,23
2017-09-06T07:38:05.295Z,23
2017-09-06T07:39:08.048Z,24
2017-09-06T07:40:10.483Z,28
2017-09-06T07:41:12.897Z,26
2017-09-06T07:42:15.646Z,24
2017-09-06T07:43:18.064Z,23
2017-09-06T07:44:20.489Z,24
2017-09-06T07:45:22.928Z,25
2017-09-06T07:46:25.331Z,23
2017-09-06T07:47:27.758Z,19
2017-09-06T07:48:30.182Z,22
2017-09-06T07:49:32.591Z,25
2017-09-06T07:50:35.002Z,26
2017-09-06T07:51:37.413Z,26
2017-09-06T07:52:39.812Z,28
2017-09-06T07:53:42.553Z,34
2017-09-06T07:54:44.950Z,31
2017-09-06T07:55:47.352Z,30
2017-09-06T07:56:49.749Z,30
2017-09-06T07:57:52.148Z,29
2017-09-06T07:58:54.544Z,26
2017-09-06T07:59:57.287Z,24
2017-09-06T08:00:59.680Z,24
2017-09-06T08:02:02.074Z,23
2017-09-06T08:03:04.473Z,26
2017-09-06T08:04:06.868Z,25
2017-09-06T08:05:09.263Z,28
2017-09-06T08:06:11.664Z,31
2017-09-06T08:07:14.059Z,34
2017-09-06T08:08:16.801Z,38
2017-09-06T08:09:19.200Z,40
2017-09-06T08:10:21.603Z,42
2017-09-06T08:11:23.998Z,42
2017-09-06T08:12:26.730Z,40
2017-09-06T08:13:29.129Z,40
2017-09-06T08:14:31.874Z,37
2017-09-06T08:15:34.266Z,38
2017-09-06T08:16:36.667Z,41
2017-09-06T08:17:39.077Z,40
2017-09-06T08:18:41.466Z,37
2017-09-06T08:19:43.869Z,32
2017-09-06T08:20:46.263Z,30
2017-09-06T08:21:48.661Z,24
2017-09-06T08:22:51.062Z,24
2017-09-06T08:23:53.462Z,26
2017-09-06T08:24:55.857Z,28
2017-09-06T08:25:58.257Z,29
2017-09-06T08:27:00.992Z,29
2017-09-06T08:28:03.390Z,26
2017-09-06T08:29:05.790Z,28
2017-09-06T08:30:08.184Z,29
2017-09-06T08:31:10.585Z,37
2017-09-06T08:32:12.979Z,43
2017-09-06T08:33:15.382Z,51
2017-09-06T08:34:17.781Z,46
2017-09-06T08:35:20.171Z,45
2017-09-06T08:36:22.574Z,62
2017-09-06T08:37:24.967Z,72
2017-09-06T08:38:27.367Z,71
2017-09-06T08:39:29.758Z,66
2017-09-06T08:40:32.156Z,63
2017-09-06T08:41:34.552Z,45
2017-09-06T08:42:36.957Z,49
2017-09-06T08:43:39.353Z,56
2017-09-06T08:44:41.749Z,69
2017-09-06T08:45:44.493Z,69
2017-09-06T08:46:47.269Z,72
2017-09-06T08:47:49.665Z,72
2017-09-06T08:48:52.066Z,70
2017-09-06T08:49:54.466Z,73
2017-09-06T08:50:56.863Z,76
2017-09-06T08:51:59.265Z,76
2017-09-06T08:53:02.013Z,75
2017-09-06T08:54:04.402Z,70
2017-09-06T08:55:06.804Z,66
2017-09-06T08:56:09.206Z,82
2017-09-06T08:57:11.611Z,72
2017-09-06T08:58:14.015Z,83
2017-09-06T08:59:16.411Z,77
2017-09-06T09:00:19.141Z,103
2017-09-06T09:01:21.547Z,105
2017-09-06T09:02:23.945Z,79
2017-09-06T09:03:26.345Z,78
2017-09-06T09:04:28.750Z,66
2017-09-06T09:05:31.488Z,51
2017-09-06T09:06:33.885Z,53
2017-09-06T09:07:36.294Z,57
2017-09-06T09:08:38.684Z,54
2017-09-06T09:09:41.084Z,53
2017-09-06T09:10:43.490Z,49
2017-09-06T09:11:45.890Z,55
2017-09-06T09:12:48.289Z,51
2017-09-06T09:13:50.695Z,43
2017-09-06T09:14:53.090Z,54
2017-09-06T09:15:55.818Z,58
2017-09-06T09:16:58.218Z,70
2017-09-06T09:18:00.626Z,75
2017-09-06T09:19:03.020Z,77
2017-09-06T09:20:05.420Z,60
2017-09-06T09:21:07.823Z,51
2017-09-06T09:22:10.230Z,49
2017-09-06T09:23:12.631Z,62
2017-09-06T09:24:15.035Z,50
2017-09-06T09:25:17.423Z,70
2017-09-06T09:26:19.832Z,88
2017-09-06T09:27:22.238Z,97
2017-09-06T09:28:24.633Z,73
2017-09-06T09:29:27.039Z,92
2017-09-06T09:30:29.435Z,86
2017-09-06T09:31:32.559Z,96
2017-09-06T09:32:34.974Z,107
2017-09-06T09:33:37.366Z,136
2017-09-06T09:34:39.767Z,161
2017-09-06T09:35:42.168Z,157
2017-09-06T09:36:44.578Z,188
2017-09-06T09:37:46.985Z,253
2017-09-06T09:38:49.378Z,178
2017-09-06T09:39:51.779Z,148
2017-09-06T09:40:54.520Z,115
2017-09-06T09:41:56.925Z,97
2017-09-06T09:42:59.328Z,87
2017-09-06T09:44:02.097Z,80
2017-09-06T09:45:04.500Z,75
2017-09-06T09:46:06.902Z,72
2017-09-06T09:47:09.301Z,54
2017-09-06T09:48:11.708Z,58
2017-09-06T09:49:14.106Z,66
2017-09-06T09:50:16.508Z,87
2017-09-06T09:51:18.922Z,94
2017-09-06T09:52:21.313Z,103
2017-09-06T09:53:23.712Z,117
2017-09-06T09:54:26.111Z,85
2017-09-06T09:55:28.513Z,78
2017-09-06T09:56:30.929Z,63
2017-09-06T09:57:33.329Z,54
2017-09-06T09:58:35.722Z,50
2017-09-06T09:59:38.131Z,57
2017-09-06T10:00:40.528Z,52
2017-09-06T10:01:42.933Z,49
2017-09-06T10:02:45.342Z,35
2017-09-06T10:03:47.736Z,28
2017-09-06T10:04:50.143Z,27
2017-09-06T10:05:52.555Z,25
2017-09-06T10:06:54.947Z,25
2017-09-06T10:07:57.347Z,23
2017-09-06T10:08:59.752Z,25
2017-09-06T10:10:02.153Z,26
2017-09-06T10:11:04.551Z,25
2017-09-06T10:12:06.952Z,23
2017-09-06T10:13:09.355Z,27
2017-09-06T10:14:11.756Z,38
2017-09-06T10:15:14.160Z,37
2017-09-06T10:16:16.562Z,35
2017-09-06T10:17:18.966Z,38
2017-09-06T10:18:21.372Z,28
2017-09-06T10:19:23.774Z,29
2017-09-06T10:20:26.185Z,35
2017-09-06T10:21:28.595Z,53
2017-09-06T10:22:30.988Z,56
2017-09-06T10:23:33.396Z,61
2017-09-06T10:24:35.796Z,108
2017-09-06T10:25:38.543Z,430
2017-09-06T10:26:40.946Z,131
2017-09-06T10:27:43.343Z,102
2017-09-06T10:28:45.745Z,119
2017-09-06T10:29:48.486Z,100
2017-09-06T10:30:50.891Z,68
2017-09-06T10:31:53.304Z,103
2017-09-06T10:32:55.731Z,107
2017-09-06T10:33:58.110Z,120
2017-09-06T10:35:00.514Z,540
2017-09-06T10:36:02.948Z,603
2017-09-06T10:37:05.361Z,595
2017-09-06T10:38:07.797Z,532
2017-09-06T10:39:10.224Z,518
2017-09-06T10:40:12.666Z,524
2017-09-06T10:41:15.089Z,173
2017-09-06T10:42:17.515Z,105
2017-09-06T10:43:19.926Z,112
2017-09-06T10:44:22.362Z,206
2017-09-06T10:45:24.810Z,169
2017-09-06T10:46:27.568Z,131
2017-09-06T10:47:30.319Z,153
2017-09-06T10:48:32.750Z,160
2017-09-06T10:49:35.223Z,531
2017-09-06T10:50:38.325Z,583
2017-09-06T10:51:40.764Z,223
2017-09-06T10:52:43.197Z,623
2017-09-06T10:53:45.629Z,212
2017-09-06T10:54:48.055Z,149
2017-09-06T10:55:50.485Z,113
2017-09-06T10:56:52.916Z,85
2017-09-06T10:57:55.349Z,72
2017-09-06T10:58:58.130Z,67
2017-09-06T11:00:00.564Z,77
2017-09-06T11:01:02.965Z,81
2017-09-06T11:02:05.397Z,83
2017-09-06T11:03:07.826Z,78
2017-09-06T11:04:10.256Z,70
2017-09-06T11:05:12.671Z,75
2017-09-06T11:06:15.103Z,110
2017-09-06T11:07:17.532Z,143
2017-09-06T11:08:19.960Z,136
2017-09-06T11:09:22.382Z,122
2017-09-06T11:10:24.834Z,107
2017-09-06T11:11:27.593Z,95
2017-09-06T11:12:30.009Z,109
2017-09-06T11:13:32.439Z,141
2017-09-06T11:14:34.864Z,145
2017-09-06T11:15:37.297Z,130
2017-09-06T11:16:39.743Z,119
2017-09-06T11:17:42.177Z,116
2017-09-06T11:18:44.941Z,108
2017-09-06T11:19:47.385Z,131
2017-09-06T11:20:49.806Z,155
2017-09-06T11:21:52.580Z,187
2017-09-06T11:22:55.011Z,152
2017-09-06T11:23:57.437Z,112
2017-09-06T11:24:59.868Z,125
2017-09-06T11:26:02.299Z,154
2017-09-06T11:27:04.732Z,134
2017-09-06T11:28:07.162Z,103
2017-09-06T11:29:09.597Z,101
2017-09-06T11:30:12.031Z,100
2017-09-06T11:31:14.450Z,84
2017-09-06T11:32:16.871Z,93
2017-09-06T11:33:19.636Z,111
2017-09-06T11:34:22.060Z,95
2017-09-06T11:35:24.490Z,102
2017-09-06T11:36:26.933Z,185
2017-09-06T11:37:29.349Z,195
2017-09-06T11:38:31.792Z,142
2017-09-06T11:39:34.201Z,98
2017-09-06T11:40:36.979Z,84
2017-09-06T11:41:39.410Z,102
2017-09-06T11:42:41.838Z,142
2017-09-06T11:43:44.269Z,147
2017-09-06T11:44:46.695Z,142
2017-09-06T11:45:49.136Z,171
2017-09-06T11:46:51.571Z,226
2017-09-06T11:47:54.003Z,223
2017-09-06T11:48:56.778Z,691
2017-09-06T11:49:59.204Z,372
2017-09-06T11:51:01.635Z,568
2017-09-06T11:52:04.070Z,568
2017-09-06T11:53:06.506Z,240
2017-09-06T11:54:09.277Z,644
2017-09-06T11:55:11.707Z,410
2017-09-06T11:56:14.136Z,214
2017-09-06T11:57:16.560Z,545
2017-09-06T11:58:18.983Z,475
2017-09-06T11:59:21.412Z,360
2017-09-06T12:00:23.837Z,379
2017-09-06T12:01:26.610Z,248
2017-09-06T12:02:29.045Z,153
2017-09-06T12:03:31.476Z,140
2017-09-06T12:04:33.908Z,149
2017-09-06T12:05:36.679Z,443
2017-09-06T12:06:39.115Z,179
2017-09-06T12:07:41.527Z,195
2017-09-06T12:08:43.944Z,567
2017-09-06T12:09:46.381Z,461
2017-09-06T12:10:48.795Z,215
2017-09-06T12:11:51.217Z,404
2017-09-06T12:12:53.651Z,349
2017-09-06T12:13:56.079Z,253
2017-09-06T12:14:58.525Z,157
2017-09-06T12:16:00.943Z,148
2017-09-06T12:17:03.739Z,163
2017-09-06T12:18:06.504Z,393
2017-09-06T12:19:08.931Z,410
2017-09-06T12:20:11.372Z,305
2017-09-06T12:21:13.821Z,178
2017-09-06T12:22:16.250Z,154
2017-09-06T12:23:18.672Z,223
2017-09-06T12:24:21.118Z,155
2017-09-06T12:25:23.552Z,113
2017-09-06T12:26:25.978Z,126
2017-09-06T12:27:28.396Z,122
2017-09-06T12:28:30.840Z,114
2017-09-06T12:29:33.269Z,111
2017-09-06T12:30:35.681Z,125
2017-09-06T12:31:38.452Z,133
2017-09-06T12:32:40.870Z,133
2017-09-06T12:33:43.290Z,145
2017-09-06T12:34:45.723Z,124
2017-09-06T12:35:48.474Z,114
2017-09-06T12:36:50.916Z,117
2017-09-06T12:37:53.349Z,98
2017-09-06T12:38:55.765Z,66
2017-09-06T12:39:58.195Z,58
2017-09-06T12:41:00.621Z,49
2017-09-06T12:42:03.038Z,37
2017-09-06T12:43:05.460Z,29
2017-09-06T12:44:07.897Z,30
2017-09-06T12:45:10.394Z,62
2017-09-06T12:46:12.807Z,107
2017-09-06T12:47:15.238Z,179
2017-09-06T12:48:17.647Z,199
2017-09-06T12:49:20.442Z,207
2017-09-06T12:50:22.870Z,206
2017-09-06T12:51:25.290Z,190
2017-09-06T12:52:27.701Z,194
2017-09-06T12:53:30.125Z,198
2017-09-06T12:54:32.566Z,177
2017-09-06T12:55:34.989Z,161
2017-09-06T12:56:37.418Z,152
2017-09-06T12:57:39.843Z,149
2017-09-06T12:58:42.626Z,143
2017-09-06T12:59:45.058Z,126
2017-09-06T13:00:47.485Z,113
2017-09-06T13:01:49.918Z,103
2017-09-06T13:02:52.673Z,104
2017-09-06T13:03:55.109Z,107
2017-09-06T13:04:57.529Z,106
2017-09-06T13:05:59.960Z,105
2017-09-06T13:07:02.387Z,103
2017-09-06T13:08:04.818Z,102
2017-09-06T13:09:07.228Z,102
2017-09-06T13:10:09.662Z,109
2017-09-06T13:11:12.210Z,111
2017-09-06T13:12:14.766Z,104
2017-09-06T13:13:17.346Z,93
2017-09-06T13:14:19.920Z,81
2017-09-06T13:15:22.486Z,69
2017-09-06T13:16:25.037Z,57
2017-09-06T13:17:27.608Z,40
2017-09-06T13:18:30.155Z,29
2017-09-06T13:19:32.709Z,19
2017-09-06T13:20:35.241Z,14
2017-09-06T13:21:37.792Z,14
2017-09-06T13:22:40.339Z,16
2017-09-06T13:23:42.778Z,17
2017-09-06T13:24:45.196Z,18
2017-09-06T13:25:47.927Z,19
2017-09-06T13:26:50.338Z,20
2017-09-06T13:27:53.088Z,20
2017-09-06T13:28:55.490Z,23
2017-09-06T13:29:57.893Z,25
2017-09-06T13:31:00.295Z,28
2017-09-06T13:32:02.699Z,30
2017-09-06T13:33:05.455Z,32
2017-09-06T13:34:07.856Z,35
2017-09-06T13:35:10.260Z,38
2017-09-06T13:36:13.027Z,46
2017-09-06T13:37:15.434Z,53
2017-09-06T13:38:18.200Z,60
2017-09-06T13:39:20.607Z,66
2017-09-06T13:40:23.692Z,70
2017-09-06T13:41:26.438Z,79
2017-09-06T13:42:28.836Z,83
2017-09-06T13:43:31.253Z,80
2017-09-06T13:44:33.993Z,75
2017-09-06T13:45:36.388Z,71
2017-09-06T13:46:38.797Z,70
2017-09-06T13:47:41.193Z,69
2017-09-06T13:48:43.598Z,70
2017-09-06T13:49:45.998Z,68
2017-09-06T13:50:48.406Z,65
2017-09-06T13:51:50.814Z,62
2017-09-06T13:52:53.220Z,65
2017-09-06T13:53:55.617Z,69
2017-09-06T13:54:58.027Z,70
2017-09-06T13:56:00.434Z,71
2017-09-06T13:57:02.832Z,78
2017-09-06T13:58:05.243Z,71
2017-09-06T13:59:07.648Z,53
2017-09-06T14:00:10.378Z,41
2017-09-06T14:01:13.126Z,38
2017-09-06T14:02:15.530Z,40
2017-09-06T14:03:17.935Z,38
2017-09-06T14:04:20.338Z,27
2017-09-06T14:05:22.744Z,21
2017-09-06T14:06:25.144Z,19
2017-09-06T14:07:27.546Z,18
2017-09-06T14:08:29.957Z,21
2017-09-06T14:09:32.362Z,36
2017-09-06T14:10:34.755Z,35
2017-09-06T14:11:37.166Z,29
2017-09-06T14:12:39.574Z,42
2017-09-06T14:13:41.973Z,44
2017-09-06T14:14:44.376Z,48
2017-09-06T14:15:46.773Z,89
2017-09-06T14:16:49.179Z,172
2017-09-06T14:17:51.595Z,176
2017-09-06T14:18:53.996Z,138
2017-09-06T14:19:56.743Z,138
2017-09-06T14:20:59.158Z,136
2017-09-06T14:22:01.559Z,131
2017-09-06T14:23:03.965Z,115
2017-09-06T14:24:06.370Z,99
2017-09-06T14:25:08.771Z,78
2017-09-06T14:26:11.179Z,66
2017-09-06T14:27:13.589Z,65
2017-09-06T14:28:16.000Z,57
2017-09-06T14:29:18.442Z,41
2017-09-06T14:30:20.843Z,36
2017-09-06T14:31:23.250Z,45
2017-09-06T14:32:25.666Z,89
2017-09-06T14:33:28.062Z,95
2017-09-06T14:34:30.467Z,68
2017-09-06T14:35:32.876Z,67
2017-09-06T14:36:35.280Z,79
2017-09-06T14:37:37.688Z,64
2017-09-06T14:38:40.101Z,43
2017-09-06T14:39:42.506Z,37
2017-09-06T14:40:44.911Z,32
2017-09-06T14:41:47.318Z,18
2017-09-06T14:42:49.724Z,8
2017-09-06T14:43:52.119Z,7
2017-09-06T14:44:54.861Z,8
2017-09-06T14:45:57.267Z,10
2017-09-06T14:46:59.685Z,15
2017-09-06T14:48:02.088Z,22
2017-09-06T14:49:04.827Z,25
2017-09-06T14:50:07.237Z,39
2017-09-06T14:51:09.653Z,64
2017-09-06T14:52:12.057Z,86
2017-09-06T14:53:14.458Z,98
2017-09-06T14:54:16.856Z,114
2017-09-06T14:55:19.254Z,104
2017-09-06T14:56:21.670Z,99
2017-09-06T14:57:24.408Z,83
2017-09-06T14:58:26.804Z,59